Time,TemperatureF,DewpointF,PressureIn,WindDirection,WindDirectionDegrees,WindSpeedMPH,WindSpeedGustMPH,Humidity,HourlyPrecipIn,Conditions,Clouds,dailyrainin,SoftwareType,DateUTC
2013-03-12 00:23:00,61.0,58.0,-100.00,SSE,155,10.0,-999.0,92,0.00,,,-99.99,,2013-03-12 04:23:00,
2013-03-12 00:32:00,61.0,58.0,-100.00,SSE,155,10.0,-999.0,92,0.00,,,-99.99,,2013-03-12 04:32:00,
2013-03-12 00:43:00,61.0,58.0,-100.00,SSE,155,10.0,-999.0,92,0.00,,,-99.99,,2013-03-12 04:43:00,
2013-03-12 01:22:00,62.0,60.0,-100.00,SSW,199,7.0,-999.0,94,0.00,,,-99.99,,2013-03-12 05:22:00,
2013-03-12 01:32:00,62.0,60.0,-100.00,SSW,199,7.0,-999.0,94,0.00,,,-99.99,,2013-03-12 05:32:00,
2013-03-12 01:42:00,62.0,60.0,-100.00,SSW,199,7.0,-999.0,94,0.00,,,-99.99,,2013-03-12 05:42:00,
2013-03-12 02:22:00,63.0,60.0,-100.00,South,173,12.0,-999.0,91,0.00,,,-99.99,,2013-03-12 06:22:00,
2013-03-12 02:32:00,63.0,60.0,-100.00,South,173,12.0,-999.0,91,0.00,,,-99.99,,2013-03-12 06:32:00,
2013-03-12 02:42:00,63.0,60.0,-100.00,South,173,12.0,-999.0,91,0.00,,,-99.99,,2013-03-12 06:42:00,
2013-03-12 03:22:00,62.0,60.0,-100.00,SSW,209,9.0,-999.0,93,0.00,,,-99.99,,2013-03-12 07:22:00,
2013-03-12 03:32:00,62.0,60.0,-100.00,SSW,209,9.0,-999.0,93,0.00,,,-99.99,,2013-03-12 07:32:00,
2013-03-12 03:42:00,62.0,60.0,-100.00,SSW,209,9.0,-999.0,93,0.00,,,-99.99,,2013-03-12 07:42:00,
2013-03-12 04:22:00,63.0,60.0,-100.00,South,185,6.0,-999.0,90,0.00,,,-99.99,,2013-03-12 08:22:00,
2013-03-12 04:33:00,63.0,60.0,-100.00,South,185,6.0,-999.0,90,0.00,,,-99.99,,2013-03-12 08:33:00,
2013-03-12 04:42:00,63.0,60.0,-100.00,South,185,6.0,-999.0,90,0.00,,,-99.99,,2013-03-12 08:42:00,
2013-03-12 05:22:00,61.0,59.0,-100.00,SW,220,5.0,-999.0,92,0.00,,,-99.99,,2013-03-12 09:22:00,
2013-03-12 05:33:00,61.0,59.0,-100.00,SW,220,5.0,-999.0,92,0.00,,,-99.99,,2013-03-12 09:33:00,
2013-03-12 05:42:00,61.0,59.0,-100.00,SW,220,5.0,-999.0,92,0.00,,,-99.99,,2013-03-12 09:42:00,
2013-03-12 06:22:00,62.0,59.0,-100.00,SSW,213,7.0,-999.0,91,0.03,,,-99.99,,2013-03-12 10:22:00,
2013-03-12 06:33:00,62.0,59.0,-100.00,SSW,213,7.0,-999.0,91,0.03,,,-99.99,,2013-03-12 10:33:00,
2013-03-12 06:42:00,62.0,59.0,-100.00,SSW,213,7.0,-999.0,91,0.03,,,-99.99,,2013-03-12 10:42:00,
2013-03-12 07:22:00,63.0,62.0,-100.00,SW,222,9.0,-999.0,97,0.26,,,-99.99,,2013-03-12 11:22:00,
2013-03-12 07:32:00,63.0,62.0,-100.00,SW,222,9.0,-999.0,97,0.26,,,-99.99,,2013-03-12 11:32:00,
2013-03-12 07:42:00,63.0,62.0,-100.00,SW,222,9.0,-999.0,97,0.26,,,-99.99,,2013-03-12 11:42:00,
2013-03-12 08:22:00,63.0,63.0,-100.00,SW,228,4.0,-999.0,100,0.02,,,-99.99,,2013-03-12 12:22:00,
2013-03-12 08:32:00,63.0,63.0,-100.00,SW,228,4.0,-999.0,100,0.02,,,-99.99,,2013-03-12 12:32:00,
2013-03-12 08:42:00,63.0,63.0,-100.00,SW,228,4.0,-999.0,100,0.02,,,-99.99,,2013-03-12 12:42:00,
2013-03-12 09:22:00,64.0,62.0,-100.00,SW,227,10.0,-999.0,94,0.01,,,-99.99,,2013-03-12 13:22:00,
2013-03-12 09:33:00,64.0,62.0,-100.00,SW,227,10.0,-999.0,94,0.01,,,-99.99,,2013-03-12 13:33:00,
2013-03-12 09:43:00,64.0,62.0,-100.00,SW,227,10.0,-999.0,94,0.01,,,-99.99,,2013-03-12 13:43:00,
2013-03-12 10:22:00,64.0,62.0,-100.00,SW,230,8.0,-999.0,92,0.00,,,-99.99,,2013-03-12 14:22:00,
2013-03-12 10:33:00,64.0,62.0,-100.00,SW,230,8.0,-999.0,92,0.00,,,-99.99,,2013-03-12 14:33:00,
2013-03-12 10:42:00,64.0,62.0,-100.00,SW,230,8.0,-999.0,92,0.00,,,-99.99,,2013-03-12 14:42:00,
2013-03-12 11:23:00,65.0,62.0,-100.00,SW,234,11.0,-999.0,89,0.00,,,-99.99,,2013-03-12 15:23:00,
2013-03-12 11:32:00,65.0,62.0,-100.00,SW,234,11.0,-999.0,89,0.00,,,-99.99,,2013-03-12 15:32:00,
2013-03-12 11:42:00,65.0,62.0,-100.00,SW,234,11.0,-999.0,89,0.00,,,-99.99,,2013-03-12 15:42:00,
2013-03-12 12:23:00,66.0,62.0,-100.00,WSW,244,13.0,-999.0,86,0.00,,,-99.99,,2013-03-12 16:23:00,
2013-03-12 12:33:00,66.0,62.0,-100.00,WSW,244,13.0,-999.0,86,0.00,,,-99.99,,2013-03-12 16:33:00,
2013-03-12 12:43:00,66.0,62.0,-100.00,WSW,244,13.0,-999.0,86,0.00,,,-99.99,,2013-03-12 16:43:00,
2013-03-12 13:23:00,67.0,61.0,-100.00,WSW,245,16.0,-999.0,81,0.00,,,-99.99,,2013-03-12 17:23:00,
2013-03-12 13:34:00,67.0,61.0,-100.00,WSW,245,16.0,-999.0,81,0.00,,,-99.99,,2013-03-12 17:34:00,
2013-03-12 13:44:00,67.0,61.0,-100.00,WSW,245,16.0,-999.0,81,0.00,,,-99.99,,2013-03-12 17:44:00,
2013-03-12 14:23:00,68.0,60.0,-100.00,SW,234,16.0,-999.0,76,0.00,,,-99.99,,2013-03-12 18:23:00,
2013-03-12 14:33:00,68.0,60.0,-100.00,SW,234,16.0,-999.0,76,0.00,,,-99.99,,2013-03-12 18:33:00,
2013-03-12 14:42:00,68.0,60.0,-100.00,SW,234,16.0,-999.0,76,0.00,,,-99.99,,2013-03-12 18:42:00,
2013-03-12 15:23:00,64.0,61.0,-100.00,SW,223,16.0,-999.0,92,0.00,,,-99.99,,2013-03-12 19:23:00,
2013-03-12 15:33:00,64.0,61.0,-100.00,SW,223,16.0,-999.0,92,0.00,,,-99.99,,2013-03-12 19:33:00,
2013-03-12 15:43:00,64.0,61.0,-100.00,SW,223,16.0,-999.0,92,0.00,,,-99.99,,2013-03-12 19:43:00,
2013-03-12 16:23:00,65.0,62.0,-100.00,SW,231,13.0,-999.0,92,0.00,,,-99.99,,2013-03-12 20:23:00,
2013-03-12 16:33:00,65.0,62.0,-100.00,SW,231,13.0,-999.0,92,0.00,,,-99.99,,2013-03-12 20:33:00,
2013-03-12 16:42:00,65.0,62.0,-100.00,SW,231,13.0,-999.0,92,0.00,,,-99.99,,2013-03-12 20:42:00,
2013-03-12 17:23:00,65.0,62.0,-100.00,SW,217,9.0,-999.0,91,-99.99,,,-99.99,,2013-03-12 21:23:00,
2013-03-12 17:33:00,65.0,62.0,-100.00,SW,217,9.0,-999.0,91,-99.99,,,-99.99,,2013-03-12 21:33:00,
2013-03-12 17:43:00,65.0,62.0,-100.00,SW,217,9.0,-999.0,91,-99.99,,,-99.99,,2013-03-12 21:43:00,
2013-03-12 18:23:00,67.0,63.0,-100.00,SSW,208,7.0,-999.0,86,0.00,,,-99.99,,2013-03-12 22:23:00,
2013-03-12 18:33:00,67.0,63.0,-100.00,SSW,208,7.0,-999.0,86,0.00,,,-99.99,,2013-03-12 22:33:00,
2013-03-12 18:43:00,67.0,63.0,-100.00,SSW,208,7.0,-999.0,86,0.00,,,-99.99,,2013-03-12 22:43:00,
2013-03-12 19:23:00,65.0,62.0,-100.00,SSW,199,9.0,-999.0,90,0.00,,,-99.99,,2013-03-12 23:23:00,
2013-03-12 19:34:00,65.0,62.0,-100.00,SSW,199,9.0,-999.0,90,0.00,,,-99.99,,2013-03-12 23:34:00,
2013-03-12 19:43:00,65.0,62.0,-100.00,SSW,199,9.0,-999.0,90,0.00,,,-99.99,,2013-03-12 23:43:00,
2013-03-12 20:23:00,62.0,61.0,-100.00,SW,226,4.0,-999.0,94,0.00,,,-99.99,,2013-03-13 00:23:00,
2013-03-12 20:33:00,62.0,61.0,-100.00,SW,226,4.0,-999.0,94,0.00,,,-99.99,,2013-03-13 00:33:00,
2013-03-12 20:42:00,62.0,61.0,-100.00,SW,226,4.0,-999.0,94,0.00,,,-99.99,,2013-03-13 00:42:00,
2013-03-12 21:22:00,60.0,59.0,-100.00,WSW,250,3.0,-999.0,97,0.00,,,-99.99,,2013-03-13 01:22:00,
2013-03-12 21:33:00,60.0,59.0,-100.00,WSW,250,3.0,-999.0,97,0.00,,,-99.99,,2013-03-13 01:33:00,
2013-03-12 21:43:00,60.0,59.0,-100.00,WSW,250,3.0,-999.0,97,0.00,,,-99.99,,2013-03-13 01:43:00,
2013-03-12 22:23:00,61.0,53.0,-100.00,West,268,6.0,-999.0,76,0.00,,,-99.99,,2013-03-13 02:23:00,
2013-03-12 22:32:00,61.0,53.0,-100.00,West,268,6.0,-999.0,76,0.00,,,-99.99,,2013-03-13 02:32:00,
2013-03-12 22:43:00,61.0,53.0,-100.00,West,268,6.0,-999.0,76,0.00,,,-99.99,,2013-03-13 02:43:00,
2013-03-12 23:22:00,61.0,49.0,-100.00,WNW,292,5.0,-999.0,66,0.00,,,-99.99,,2013-03-13 03:22:00,
2013-03-12 23:32:00,61.0,49.0,-100.00,WNW,292,5.0,-999.0,66,0.00,,,-99.99,,2013-03-13 03:32:00,
2013-03-12 23:42:00,61.0,49.0,-100.00,WNW,292,5.0,-999.0,66,0.00,,,-99.99,,2013-03-13 03:42:00,